createdAt,value
2022-10-13T00:00:49.857Z,10.02
2022-10-13T00:03:18.546Z,10.01
2022-10-13T00:05:48.007Z,10.04
2022-10-13T00:08:19.057Z,10.13
2022-10-13T00:10:48.074Z,10.02
2022-10-13T00:13:16.388Z,10.08
2022-10-13T00:15:46.791Z,10.20
2022-10-13T00:18:15.121Z,10.16
2022-10-13T00:20:43.854Z,10.12
2022-10-13T00:23:12.139Z,10.23
2022-10-13T00:25:43.325Z,10.21
2022-10-13T00:28:11.950Z,10.31
2022-10-13T00:30:40.291Z,10.22
2022-10-13T00:33:10.218Z,10.18
2022-10-13T00:35:42.061Z,10.30
2022-10-13T00:38:10.388Z,10.22
2022-10-13T00:40:45.332Z,10.33
2022-10-13T00:43:17.892Z,10.23
2022-10-13T00:45:46.233Z,10.22
2022-10-13T00:48:15.862Z,10.26
2022-10-13T00:50:44.125Z,10.27
2022-10-13T00:53:12.718Z,10.22
2022-10-13T00:55:41.239Z,10.25
2022-10-13T00:58:09.941Z,10.36
2022-10-13T01:00:38.226Z,10.45
2022-10-13T01:03:06.512Z,10.35
2022-10-13T01:05:36.443Z,10.28
2022-10-13T01:08:04.694Z,10.27
2022-10-13T01:10:37.787Z,10.36
2022-10-13T01:13:09.688Z,10.27
2022-10-13T01:15:39.859Z,10.20
2022-10-13T01:18:11.306Z,10.11
2022-10-13T01:20:59.140Z,10.25
2022-10-13T01:23:37.548Z,10.21
2022-10-13T01:26:20.823Z,10.25
2022-10-13T01:28:59.150Z,10.27
2022-10-13T01:31:29.677Z,10.27
2022-10-13T01:34:00.836Z,10.25
2022-10-13T01:36:33.229Z,10.17
2022-10-13T01:39:04.613Z,10.19
2022-10-13T01:41:36.007Z,10.18
2022-10-13T01:44:07.149Z,10.32
2022-10-13T01:46:37.755Z,10.21
2022-10-13T01:49:07.320Z,10.21
2022-10-13T01:51:35.568Z,10.31
2022-10-13T01:54:04.181Z,10.32
2022-10-13T01:56:32.429Z,10.37
2022-10-13T01:59:01.641Z,10.26
2022-10-13T02:01:36.491Z,10.31
2022-10-13T02:04:13.581Z,10.17
2022-10-13T02:06:44.416Z,10.09
2022-10-13T02:09:14.953Z,10.17
2022-10-13T02:11:52.957Z,10.14
2022-10-13T02:14:22.361Z,10.22
2022-10-13T02:16:50.636Z,10.14
2022-10-13T02:19:20.329Z,10.19
2022-10-13T02:21:48.636Z,10.18
2022-10-13T02:24:17.025Z,10.23
2022-10-13T02:26:45.221Z,10.18
2022-10-13T02:29:14.549Z,10.20
2022-10-13T02:31:42.848Z,10.20
2022-10-13T02:34:11.128Z,10.17
2022-10-13T02:36:40.927Z,10.22
2022-10-13T02:39:10.197Z,10.20
2022-10-13T02:41:38.431Z,10.17
2022-10-13T02:44:07.093Z,10.24
2022-10-13T02:46:35.343Z,10.25
2022-10-13T02:49:03.955Z,10.40
2022-10-13T02:51:35.144Z,10.43
2022-10-13T02:54:08.843Z,10.26
2022-10-13T02:56:37.062Z,10.33
2022-10-13T02:59:05.761Z,10.20
2022-10-13T03:01:34.159Z,10.19
2022-10-13T03:04:02.434Z,10.19
2022-10-13T03:06:30.616Z,10.19
2022-10-13T03:08:59.406Z,10.16
2022-10-13T03:11:28.984Z,10.18
2022-10-13T03:13:57.254Z,10.21
2022-10-13T03:16:25.459Z,10.34
2022-10-13T03:18:53.734Z,10.35
2022-10-13T03:21:21.939Z,10.29
2022-10-13T03:23:50.216Z,10.28
2022-10-13T03:26:18.451Z,10.24
2022-10-13T03:28:51.587Z,10.27
2022-10-13T03:31:19.960Z,10.28
2022-10-13T03:33:48.167Z,10.34
2022-10-13T03:36:16.409Z,10.32
2022-10-13T03:38:44.670Z,10.41
2022-10-13T03:41:13.738Z,10.33
2022-10-13T03:43:42.115Z,10.30
2022-10-13T03:46:12.216Z,10.27
2022-10-13T03:48:40.601Z,10.29
2022-10-13T03:51:09.042Z,10.33
2022-10-13T03:53:37.620Z,10.33
2022-10-13T03:56:06.706Z,10.30
2022-10-13T03:58:35.207Z,10.36
2022-10-13T04:01:04.915Z,10.30
2022-10-13T04:03:34.807Z,10.47
2022-10-13T04:06:03.132Z,10.37
2022-10-13T04:08:31.463Z,10.32
2022-10-13T04:11:00.508Z,10.32
2022-10-13T04:13:29.068Z,10.38
2022-10-13T04:15:57.266Z,10.36
2022-10-13T04:18:25.548Z,10.39
2022-10-13T04:20:55.441Z,10.37
2022-10-13T04:23:23.651Z,10.32
2022-10-13T04:25:51.852Z,10.37
2022-10-13T04:28:20.236Z,10.40
2022-10-13T04:30:49.519Z,10.45
2022-10-13T04:33:18.145Z,10.51
2022-10-13T04:35:46.354Z,10.53
2022-10-13T04:38:16.054Z,10.40
2022-10-13T04:40:44.262Z,10.55
2022-10-13T04:43:12.999Z,10.56
2022-10-13T04:45:41.236Z,10.37
2022-10-13T04:48:09.489Z,10.39
2022-10-13T04:50:37.822Z,10.56
2022-10-13T04:53:06.071Z,10.49
2022-10-13T04:55:38.158Z,10.49
2022-10-13T04:58:06.402Z,10.69
2022-10-13T05:00:34.747Z,10.61
2022-10-13T05:03:03.034Z,10.66
2022-10-13T05:05:31.226Z,10.59
2022-10-13T05:07:59.497Z,10.64
2022-10-13T05:10:33.868Z,10.70
2022-10-13T05:13:05.740Z,10.74
2022-10-13T05:15:34.515Z,10.75
2022-10-13T05:18:03.636Z,10.51
2022-10-13T05:20:31.949Z,10.73
2022-10-13T05:23:00.471Z,10.86
2022-10-13T05:25:32.961Z,10.79
2022-10-13T05:28:02.402Z,10.88
2022-10-13T05:30:32.453Z,10.94
2022-10-13T05:33:03.659Z,10.83
2022-10-13T05:35:31.935Z,10.80
2022-10-13T05:38:00.173Z,10.76
2022-10-13T05:40:28.592Z,10.81
2022-10-13T05:42:58.041Z,10.74
2022-10-13T05:45:26.952Z,10.67
2022-10-13T05:47:56.725Z,10.69
2022-10-13T05:50:26.609Z,10.66
2022-10-13T05:52:54.829Z,10.72
2022-10-13T05:55:23.002Z,10.69
2022-10-13T05:57:51.587Z,10.71
2022-10-13T06:00:20.273Z,10.68
2022-10-13T06:02:51.163Z,10.63
2022-10-13T06:05:21.391Z,10.61
2022-10-13T06:07:49.689Z,10.57
2022-10-13T06:10:18.765Z,10.68
2022-10-13T06:12:47.172Z,10.59
2022-10-13T06:15:15.498Z,10.62
2022-10-13T06:17:43.773Z,10.98
2022-10-13T06:20:24.218Z,10.82
2022-10-13T06:22:52.480Z,10.73
2022-10-13T06:25:20.714Z,10.74
2022-10-13T06:27:49.985Z,10.91
2022-10-13T06:30:18.384Z,10.71
2022-10-13T06:32:46.574Z,11.00
2022-10-13T06:35:14.802Z,10.84
2022-10-13T06:37:46.521Z,10.80
2022-10-13T06:40:16.350Z,10.84
2022-10-13T06:42:44.919Z,10.69
2022-10-13T06:45:13.176Z,10.65
2022-10-13T06:47:41.383Z,10.86
2022-10-13T06:50:10.680Z,10.86
2022-10-13T06:52:39.386Z,10.74
2022-10-13T06:55:09.818Z,10.80
2022-10-13T06:57:38.319Z,10.70
2022-10-13T07:00:07.855Z,10.70
2022-10-13T07:02:36.194Z,10.72
2022-10-13T07:05:06.080Z,10.85
2022-10-13T07:07:34.309Z,10.86
2022-10-13T07:10:05.705Z,11.04
2022-10-13T07:12:35.313Z,11.10
2022-10-13T07:15:09.809Z,11.07
2022-10-13T07:17:40.923Z,10.94
2022-10-13T07:20:10.008Z,11.01
2022-10-13T07:22:38.278Z,11.14
2022-10-13T07:25:07.963Z,11.10
2022-10-13T07:27:40.876Z,11.04
2022-10-13T07:30:10.214Z,11.06
2022-10-13T07:32:39.244Z,11.07
2022-10-13T07:35:07.836Z,11.10
2022-10-13T07:37:36.042Z,11.15
2022-10-13T07:40:04.617Z,11.22
2022-10-13T07:42:32.834Z,11.26
2022-10-13T07:45:02.510Z,11.29
2022-10-13T07:47:30.871Z,11.39
2022-10-13T07:49:59.531Z,11.27
2022-10-13T07:52:28.140Z,11.40
2022-10-13T07:54:57.002Z,11.39
2022-10-13T07:57:27.796Z,11.33
2022-10-13T08:00:06.208Z,11.48
2022-10-13T08:02:34.804Z,11.58
2022-10-13T08:05:04.238Z,11.57
2022-10-13T08:07:32.439Z,11.82
2022-10-13T08:10:02.066Z,11.93
2022-10-13T08:12:30.237Z,11.90
2022-10-13T08:15:01.818Z,12.15
2022-10-13T08:17:35.316Z,12.07
2022-10-13T08:20:13.060Z,12.34
2022-10-13T08:22:41.284Z,11.88
2022-10-13T08:25:10.373Z,12.10
2022-10-13T08:27:50.699Z,12.02
2022-10-13T08:30:20.251Z,12.24
2022-10-13T08:32:50.091Z,12.17
2022-10-13T08:35:18.473Z,12.07
2022-10-13T08:37:46.801Z,12.36
2022-10-13T08:40:15.918Z,12.37
2022-10-13T08:42:44.878Z,12.46
2022-10-13T08:45:39.787Z,12.59
2022-10-13T08:48:08.167Z,12.58
2022-10-13T08:50:37.426Z,12.52
2022-10-13T08:53:07.430Z,12.81
2022-10-13T08:55:39.692Z,13.05
2022-10-13T08:58:11.324Z,12.87
2022-10-13T09:00:39.844Z,12.96
2022-10-13T09:03:24.250Z,12.83
2022-10-13T09:06:02.409Z,13.11
2022-10-13T09:08:31.908Z,13.00
2022-10-13T09:11:00.163Z,13.02
2022-10-13T09:13:28.794Z,13.28
2022-10-13T09:15:57.686Z,13.42
2022-10-13T09:18:31.889Z,13.24
2022-10-13T09:21:18.400Z,13.16
2022-10-13T09:23:46.622Z,13.19
2022-10-13T09:26:19.427Z,13.18
2022-10-13T09:28:47.626Z,13.27
2022-10-13T09:31:17.426Z,13.37
2022-10-13T09:33:51.178Z,13.33
2022-10-13T09:36:19.446Z,13.23
2022-10-13T09:39:06.551Z,13.43
2022-10-13T09:41:36.910Z,13.49
2022-10-13T09:44:11.617Z,13.46
2022-10-13T09:46:41.062Z,13.65
2022-10-13T09:49:26.987Z,13.55
2022-10-13T09:52:00.770Z,13.98
2022-10-13T09:54:29.948Z,14.03
2022-10-13T09:57:00.492Z,13.93
2022-10-13T09:59:33.361Z,14.20
2022-10-13T10:02:03.060Z,14.53
2022-10-13T10:04:35.070Z,14.20
2022-10-13T10:07:03.907Z,14.71
2022-10-13T10:09:35.690Z,14.88
2022-10-13T10:12:04.482Z,14.69
2022-10-13T10:14:33.516Z,15.15
2022-10-13T10:17:05.877Z,15.07
2022-10-13T10:19:45.134Z,15.38
2022-10-13T10:22:16.795Z,15.46
2022-10-13T10:24:48.699Z,15.16
2022-10-13T10:29:56.251Z,15.23
2022-10-13T10:32:35.102Z,15.77
2022-10-13T10:35:11.089Z,15.52
2022-10-13T10:37:46.662Z,15.36
2022-10-13T10:40:21.616Z,15.53
2022-10-13T10:43:25.188Z,15.31
2022-10-13T10:45:53.512Z,15.20
2022-10-13T10:48:23.048Z,15.53
2022-10-13T10:50:52.976Z,15.53
2022-10-13T10:53:23.826Z,15.52
2022-10-13T10:55:54.448Z,15.22
2022-10-13T10:58:28.264Z,15.53
2022-10-13T11:01:00.552Z,15.23
2022-10-13T11:03:37.634Z,15.35
2022-10-13T11:06:23.570Z,15.43
2022-10-13T11:08:51.965Z,15.63
2022-10-13T11:11:40.096Z,15.46
2022-10-13T11:14:27.007Z,15.72
2022-10-13T11:17:18.247Z,15.56
2022-10-13T11:19:47.842Z,15.32
2022-10-13T11:22:23.068Z,15.42
2022-10-13T11:25:25.188Z,15.61
2022-10-13T11:27:53.533Z,15.87
2022-10-13T11:30:44.573Z,15.63
2022-10-13T11:33:35.277Z,15.59
2022-10-13T11:36:49.429Z,15.34
2022-10-13T11:39:51.193Z,15.59
2022-10-13T11:42:58.285Z,15.68
2022-10-13T11:45:58.337Z,15.53
2022-10-13T11:49:01.030Z,15.76
2022-10-13T11:51:34.076Z,15.90
2022-10-13T11:54:11.752Z,15.84
2022-10-13T11:56:48.502Z,15.86
2022-10-13T11:59:24.073Z,16.13
2022-10-13T12:01:55.470Z,16.07
2022-10-13T12:04:24.131Z,16.17
2022-10-13T12:06:56.794Z,16.05
2022-10-13T12:09:25.201Z,16.27
2022-10-13T12:12:03.335Z,16.07
2022-10-13T12:14:39.753Z,16.04
2022-10-13T12:17:24.458Z,16.12
2022-10-13T12:19:56.940Z,16.00
2022-10-13T12:22:36.831Z,15.88
2022-10-13T12:25:17.135Z,15.69
2022-10-13T12:27:52.087Z,15.48
2022-10-13T12:30:29.710Z,15.69
2022-10-13T12:32:58.682Z,15.58
2022-10-13T12:35:28.768Z,15.54
2022-10-13T12:37:57.318Z,15.68
2022-10-13T12:40:26.795Z,15.49
2022-10-13T12:42:56.393Z,15.46
2022-10-13T12:45:31.109Z,15.56
2022-10-13T12:47:59.699Z,15.27
2022-10-13T12:50:36.644Z,15.43
2022-10-13T12:53:15.653Z,15.19
2022-10-13T12:55:59.802Z,15.57
2022-10-13T12:58:29.719Z,15.18
2022-10-13T13:01:10.735Z,14.93
2022-10-13T13:03:41.658Z,14.86
2022-10-13T13:06:23.738Z,14.86
2022-10-13T13:09:28.845Z,14.80
2022-10-13T13:12:27.887Z,14.79
2022-10-13T13:14:57.008Z,14.70
2022-10-13T13:20:29.431Z,14.84
2022-10-13T13:22:59.498Z,14.97
2022-10-13T13:25:28.064Z,14.91
2022-10-13T13:27:56.296Z,14.86
2022-10-13T13:30:26.516Z,15.15
2022-10-13T13:32:56.245Z,15.02
2022-10-13T13:35:26.394Z,15.10
2022-10-13T13:37:59.247Z,15.16
2022-10-13T13:40:28.469Z,15.15
2022-10-13T13:42:57.986Z,15.29
2022-10-13T13:45:26.503Z,15.31
2022-10-13T13:48:00.717Z,15.39
2022-10-13T13:50:33.443Z,15.56
2022-10-13T13:53:04.232Z,15.50
2022-10-13T13:55:36.641Z,15.54
2022-10-13T13:58:08.050Z,15.54
2022-10-13T14:00:37.345Z,15.50
2022-10-13T14:03:07.109Z,15.35
2022-10-13T14:05:35.637Z,15.42
2022-10-13T14:08:03.898Z,15.51
2022-10-13T14:10:32.133Z,15.42
2022-10-13T14:13:00.553Z,15.43
2022-10-13T14:15:30.031Z,15.42
2022-10-13T14:17:58.408Z,15.49
2022-10-13T14:20:28.060Z,15.47
2022-10-13T14:22:56.589Z,15.51
2022-10-13T14:25:25.419Z,15.32
2022-10-13T14:27:53.669Z,15.22
2022-10-13T14:30:21.859Z,15.41
2022-10-13T14:32:50.098Z,15.41
2022-10-13T14:35:18.681Z,15.43
2022-10-13T14:37:48.351Z,15.33
2022-10-13T14:40:16.785Z,15.23
2022-10-13T14:42:46.297Z,15.13
2022-10-13T14:45:15.891Z,14.86
2022-10-13T14:47:44.212Z,14.92
2022-10-13T14:50:12.507Z,14.68
2022-10-13T14:52:40.813Z,14.68
2022-10-13T14:55:11.121Z,14.54
2022-10-13T14:57:39.327Z,14.62
2022-10-13T15:00:08.316Z,14.54
2022-10-13T15:02:36.588Z,14.58
2022-10-13T15:05:05.326Z,14.57
2022-10-13T15:07:36.841Z,14.83
2022-10-13T15:10:16.377Z,14.89
2022-10-13T15:12:44.544Z,14.85
2022-10-13T15:15:16.558Z,14.89
2022-10-13T15:17:44.910Z,14.85
2022-10-13T15:20:13.933Z,14.82
2022-10-13T15:22:42.349Z,14.85
2022-10-13T15:25:12.460Z,14.87
2022-10-13T15:27:42.279Z,14.76
2022-10-13T15:30:11.494Z,14.78
2022-10-13T15:32:45.963Z,14.79
2022-10-13T15:35:14.221Z,14.83
2022-10-13T15:37:42.424Z,14.81
2022-10-13T15:40:14.103Z,14.81
2022-10-13T15:42:42.360Z,14.79
2022-10-13T15:45:12.330Z,14.86
2022-10-13T15:47:41.917Z,14.77
2022-10-13T15:50:10.435Z,14.98
2022-10-13T15:52:41.679Z,14.76
2022-10-13T15:55:12.216Z,14.79
2022-10-13T15:57:40.476Z,14.93
2022-10-13T16:00:09.669Z,14.85
2022-10-13T16:02:38.445Z,14.97
2022-10-13T16:05:08.099Z,14.86
2022-10-13T16:07:36.324Z,14.81
2022-10-13T16:10:05.117Z,14.89
2022-10-13T16:12:34.789Z,14.93
2022-10-13T16:15:03.154Z,14.73
2022-10-13T16:17:31.371Z,14.71
2022-10-13T16:19:59.634Z,14.63
2022-10-13T16:22:27.923Z,14.61
2022-10-13T16:24:58.085Z,14.66
2022-10-13T16:27:28.899Z,14.51
2022-10-13T16:29:58.786Z,14.56
2022-10-13T16:32:27.088Z,14.55
2022-10-13T16:34:55.599Z,14.49
2022-10-13T16:37:24.393Z,14.52
2022-10-13T16:39:52.870Z,14.41
2022-10-13T16:42:21.186Z,14.52
2022-10-13T16:44:49.433Z,14.40
2022-10-13T16:47:19.124Z,14.22
2022-10-13T16:49:48.352Z,14.40
2022-10-13T16:52:16.685Z,14.32
2022-10-13T16:54:44.866Z,14.28
2022-10-13T16:57:14.441Z,14.34
2022-10-13T16:59:42.682Z,14.24
2022-10-13T17:02:14.627Z,14.37
2022-10-13T17:04:44.627Z,14.21
2022-10-13T17:07:12.878Z,14.12
2022-10-13T17:09:41.134Z,14.02
2022-10-13T17:12:09.487Z,14.05
2022-10-13T17:14:38.124Z,13.95
2022-10-13T17:17:06.349Z,14.04
2022-10-13T17:19:34.704Z,13.96
2022-10-13T17:22:04.346Z,14.07
2022-10-13T17:24:32.597Z,13.98
2022-10-13T17:27:01.088Z,13.85
2022-10-13T17:29:29.502Z,13.88
2022-10-13T17:31:57.798Z,13.97
2022-10-13T17:34:26.386Z,13.99
2022-10-13T17:36:54.608Z,13.96
2022-10-13T17:39:24.278Z,13.79
2022-10-13T17:41:52.637Z,13.81
2022-10-13T17:44:21.368Z,13.94
2022-10-13T17:46:50.498Z,13.97
2022-10-13T17:49:18.916Z,13.81
2022-10-13T17:51:48.073Z,13.93
2022-10-13T17:54:16.939Z,13.95
2022-10-13T17:56:47.607Z,13.95
2022-10-13T17:59:16.425Z,13.83
2022-10-13T18:01:46.214Z,13.90
2022-10-13T18:04:15.510Z,13.89
2022-10-13T18:06:44.442Z,13.88
2022-10-13T18:09:14.175Z,13.92
2022-10-13T18:11:48.467Z,13.86
2022-10-13T18:14:19.443Z,13.85
2022-10-13T18:16:48.917Z,13.93
2022-10-13T18:19:17.243Z,13.83
2022-10-13T18:21:45.811Z,13.94
2022-10-13T18:24:19.602Z,13.78
2022-10-13T18:26:50.990Z,13.87
2022-10-13T18:29:41.544Z,13.72
2022-10-13T18:32:09.855Z,13.83
2022-10-13T18:34:39.657Z,13.77
2022-10-13T18:37:09.273Z,13.79
2022-10-13T18:39:37.511Z,13.84
2022-10-13T18:42:06.161Z,13.78
2022-10-13T18:44:36.287Z,13.72
2022-10-13T18:47:04.575Z,13.81
2022-10-13T18:49:33.360Z,13.79
2022-10-13T18:52:01.730Z,13.62
2022-10-13T18:54:30.369Z,13.73
2022-10-13T18:56:58.885Z,13.55
2022-10-13T18:59:27.636Z,13.66
2022-10-13T19:01:57.293Z,13.66
2022-10-13T19:04:26.362Z,13.60
2022-10-13T19:06:54.634Z,13.40
2022-10-13T19:09:25.061Z,13.53
2022-10-13T19:11:53.300Z,13.67
2022-10-13T19:14:21.644Z,13.66
2022-10-13T19:16:51.269Z,13.79
2022-10-13T19:19:21.587Z,13.72
2022-10-13T19:21:49.866Z,13.72
2022-10-13T19:24:18.143Z,13.88
2022-10-13T19:26:46.394Z,13.60
2022-10-13T19:29:16.246Z,13.67
2022-10-13T19:31:44.734Z,13.63
2022-10-13T19:34:13.323Z,13.67
2022-10-13T19:36:43.945Z,13.73
2022-10-13T19:39:14.926Z,13.64
2022-10-13T19:41:43.305Z,13.71
2022-10-13T19:44:11.599Z,13.58
2022-10-13T19:46:40.117Z,13.53
2022-10-13T19:49:08.532Z,13.72
2022-10-13T19:51:37.303Z,13.61
2022-10-13T19:54:07.172Z,13.66
2022-10-13T19:56:35.546Z,13.61
2022-10-13T19:59:04.717Z,13.60
2022-10-13T20:01:43.727Z,13.62
2022-10-13T20:04:12.273Z,13.65
2022-10-13T20:06:40.453Z,13.64
2022-10-13T20:09:10.092Z,13.63
2022-10-13T20:11:45.679Z,13.66
2022-10-13T20:14:14.230Z,13.66
2022-10-13T20:16:42.596Z,13.74
2022-10-13T20:19:14.251Z,13.62
2022-10-13T20:21:42.479Z,13.55
2022-10-13T20:24:12.235Z,13.43
2022-10-13T20:26:41.198Z,13.37
2022-10-13T20:29:10.025Z,13.32
2022-10-13T20:31:38.546Z,13.40
2022-10-13T20:34:06.935Z,13.29
2022-10-13T20:36:38.774Z,13.38
2022-10-13T20:39:09.208Z,13.40
2022-10-13T20:41:39.003Z,13.34
2022-10-13T20:44:07.486Z,13.31
2022-10-13T20:46:36.028Z,13.22
2022-10-13T20:49:12.729Z,13.24
2022-10-13T20:51:42.231Z,13.21
2022-10-13T20:54:10.467Z,13.30
2022-10-13T20:56:40.357Z,13.26
2022-10-13T20:59:09.724Z,13.24
2022-10-13T21:01:38.172Z,13.10
2022-10-13T21:04:09.001Z,13.34
2022-10-13T21:06:37.434Z,13.39
2022-10-13T21:09:06.331Z,13.19
2022-10-13T21:11:34.961Z,13.31
2022-10-13T21:14:07.384Z,13.23
2022-10-13T21:16:35.920Z,13.19
2022-10-13T21:19:04.848Z,13.17
2022-10-13T21:27:25.930Z,13.35
2022-10-13T21:29:55.909Z,13.24
2022-10-13T21:32:24.162Z,13.29
2022-10-13T21:34:53.842Z,13.26
2022-10-13T21:37:22.404Z,13.32
2022-10-13T21:39:51.055Z,13.32
2022-10-13T21:42:25.134Z,13.27
2022-10-13T21:44:53.488Z,13.37
2022-10-13T21:47:23.590Z,13.38
2022-10-13T21:49:54.440Z,13.25
2022-10-13T21:52:22.717Z,13.29
2022-10-13T21:54:50.923Z,13.39
2022-10-13T21:57:19.602Z,13.48
2022-10-13T21:59:48.163Z,13.37
2022-10-13T22:02:16.320Z,13.25
2022-10-13T22:04:46.001Z,13.29
2022-10-13T22:07:20.029Z,13.34
2022-10-13T22:09:48.730Z,13.13
2022-10-13T22:12:16.947Z,13.23
2022-10-13T22:14:45.717Z,13.31
2022-10-13T22:17:13.893Z,13.21
2022-10-13T22:19:42.142Z,13.29
2022-10-13T22:22:11.736Z,13.31
2022-10-13T22:24:41.548Z,13.08
2022-10-13T22:27:09.823Z,13.20
2022-10-13T22:29:38.137Z,13.22
2022-10-13T22:32:06.594Z,13.29
2022-10-13T22:34:34.833Z,13.40
2022-10-13T22:37:03.087Z,13.37
2022-10-13T22:39:32.802Z,13.37
2022-10-13T22:42:01.031Z,13.41
2022-10-13T22:44:29.305Z,13.26
2022-10-13T22:46:57.485Z,13.24
2022-10-13T22:49:43.053Z,13.29
2022-10-13T22:52:11.244Z,13.19
2022-10-13T22:54:40.904Z,13.17
2022-10-13T22:57:09.130Z,13.15
2022-10-13T22:59:37.503Z,13.22
2022-10-13T23:02:05.752Z,13.27
2022-10-13T23:04:33.950Z,13.19
2022-10-13T23:07:02.212Z,13.48
2022-10-13T23:09:31.160Z,13.48
2022-10-13T23:12:00.749Z,13.45
2022-10-13T23:14:28.984Z,13.29
2022-10-13T23:16:57.196Z,13.28
2022-10-13T23:19:25.465Z,13.25
2022-10-13T23:21:53.649Z,13.25
2022-10-13T23:24:21.883Z,13.29
2022-10-13T23:26:50.054Z,13.38
2022-10-13T23:29:19.744Z,13.15
2022-10-13T23:31:48.032Z,13.27
2022-10-13T23:34:16.217Z,13.20
2022-10-13T23:36:44.477Z,13.28
2022-10-13T23:39:12.757Z,13.38
2022-10-13T23:41:41.217Z,13.36
2022-10-13T23:44:09.793Z,13.46
2022-10-13T23:46:39.357Z,13.42
2022-10-13T23:49:07.629Z,13.24
2022-10-13T23:51:35.847Z,13.47
2022-10-13T23:54:04.392Z,13.25
2022-10-13T23:56:32.621Z,13.45
2022-10-13T23:59:01.703Z,13.33
